Rechercher aéroport 
image banner adimage banner adimage banner ad
image banner ad

PS67 - Uphill

Situé à Claysville, United States

ICAO - PS67, IATA -

Données fournies par Airmate  

Information générale

Coordonnées: N40°6'22" W80°25'51"
Élévation : 1360 feet MSL.
Variation magnétique : -07° East
Voir autres Aéroports à Pennsylvania

Données opérationnelles

Special qualification required
Heure actuelle UTC:
Heure actuelle locale:
Météo à : KAFJ - Washington County ( 12 km )
METAR: KAFJ 291618Z AUTO 23009KT 10SM VCTS FEW029 BKN055 OVC065 24/21 A2997 RMK AO2 TSB12
Voir NOTAMs / SUP AIP / TFR affectant cet aéroport [VIEW]
Fréquences de communication: [VIEW]

Pistes:

Identifiant RWYQFULongueur (ft)Largeur (ft)SurfaceLDA (ft)
10186575GRASS
28186575GRASS

Coordonnées de l'aéroport

Adresse: Claysville United States

Vue satellite de PS67